sensor_id;sensor_type;location;lat;lon;timestamp;pressure;altitude;pressure_sealevel;temperature;humidity
62895;BME280;49204;44.916;37.998;2022-11-12T00:00:15;102823.36;;;5.03;84.79
62895;BME280;49204;44.916;37.998;2022-11-12T00:03:01;102822.86;;;5.01;84.69
62895;BME280;49204;44.916;37.998;2022-11-12T00:05:47;102832.88;;;5.00;84.69
62895;BME280;49204;44.916;37.998;2022-11-12T00:08:34;102834.58;;;4.99;84.69
62895;BME280;49204;44.916;37.998;2022-11-12T00:11:20;102838.09;;;5.01;84.64
62895;BME280;49204;44.916;37.998;2022-11-12T00:14:06;102839.46;;;5.05;84.56
62895;BME280;49204;44.916;37.998;2022-11-12T00:16:52;102840.37;;;5.07;84.59
62895;BME280;49204;44.916;37.998;2022-11-12T00:19:38;102844.34;;;5.10;84.64
62895;BME280;49204;44.916;37.998;2022-11-12T00:22:23;102853.55;;;5.13;84.58
62895;BME280;49204;44.916;37.998;2022-11-12T00:25:10;102841.80;;;5.14;84.50
62895;BME280;49204;44.916;37.998;2022-11-12T00:28:07;102853.14;;;5.15;84.44
62895;BME280;49204;44.916;37.998;2022-11-12T00:30:48;102851.44;;;5.17;84.42
62895;BME280;49204;44.916;37.998;2022-11-12T00:33:37;102846.65;;;5.18;84.41
62895;BME280;49204;44.916;37.998;2022-11-12T00:36:21;102845.38;;;5.19;84.40
62895;BME280;49204;44.916;37.998;2022-11-12T00:39:07;102840.55;;;5.17;84.56
62895;BME280;49204;44.916;37.998;2022-11-12T00:41:54;102844.50;;;5.19;84.62
62895;BME280;49204;44.916;37.998;2022-11-12T00:44:40;102841.89;;;5.19;84.58
62895;BME280;49204;44.916;37.998;2022-11-12T00:47:26;102834.89;;;5.18;84.56
62895;BME280;49204;44.916;37.998;2022-11-12T00:50:12;102833.55;;;5.16;84.59
62895;BME280;49204;44.916;37.998;2022-11-12T00:52:59;102839.55;;;5.11;84.70
62895;BME280;49204;44.916;37.998;2022-11-12T00:55:45;102842.14;;;5.08;84.71
62895;BME280;49204;44.916;37.998;2022-11-12T00:58:32;102840.77;;;5.05;84.76
62895;BME280;49204;44.916;37.998;2022-11-12T01:01:18;102832.50;;;5.05;84.83
62895;BME280;49204;44.916;37.998;2022-11-12T01:04:05;102839.03;;;5.05;84.92
62895;BME280;49204;44.916;37.998;2022-11-12T01:06:52;102837.78;;;5.08;84.90
62895;BME280;49204;44.916;37.998;2022-11-12T01:09:37;102843.37;;;5.05;84.97
62895;BME280;49204;44.916;37.998;2022-11-12T01:12:23;102848.50;;;4.98;85.08
62895;BME280;49204;44.916;37.998;2022-11-12T01:15:09;102848.54;;;5.00;85.16
62895;BME280;49204;44.916;37.998;2022-11-12T01:17:55;102860.69;;;4.99;85.18
62895;BME280;49204;44.916;37.998;2022-11-12T01:20:41;102862.86;;;4.98;85.25
62895;BME280;49204;44.916;37.998;2022-11-12T01:23:26;102864.23;;;5.03;85.21
62895;BME280;49204;44.916;37.998;2022-11-12T01:26:13;102867.81;;;5.08;85.15
62895;BME280;49204;44.916;37.998;2022-11-12T01:28:59;102877.48;;;5.14;85.07
62895;BME280;49204;44.916;37.998;2022-11-12T01:31:45;102877.98;;;5.18;84.90
62895;BME280;49204;44.916;37.998;2022-11-12T01:34:31;102873.27;;;5.20;84.88
62895;BME280;49204;44.916;37.998;2022-11-12T01:37:17;102862.45;;;5.24;84.80
62895;BME280;49204;44.916;37.998;2022-11-12T01:40:03;102868.57;;;5.26;84.76
62895;BME280;49204;44.916;37.998;2022-11-12T01:42:50;102870.72;;;5.25;84.55
62895;BME280;49204;44.916;37.998;2022-11-12T01:45:38;102875.94;;;5.25;84.44
62895;BME280;49204;44.916;37.998;2022-11-12T01:48:25;102878.12;;;5.24;84.34
62895;BME280;49204;44.916;37.998;2022-11-12T01:51:11;102873.30;;;5.22;84.28
62895;BME280;49204;44.916;37.998;2022-11-12T01:53:58;102871.93;;;5.19;84.32
62895;BME280;49204;44.916;37.998;2022-11-12T01:56:46;102865.40;;;5.19;84.40
62895;BME280;49204;44.916;37.998;2022-11-12T01:59:33;102864.53;;;5.20;84.34
62895;BME280;49204;44.916;37.998;2022-11-12T02:02:19;102857.97;;;5.17;84.39
62895;BME280;49204;44.916;37.998;2022-11-12T02:05:06;102865.73;;;5.14;84.48
62895;BME280;49204;44.916;37.998;2022-11-12T02:07:52;102857.74;;;5.05;84.76
62895;BME280;49204;44.916;37.998;2022-11-12T02:10:40;102864.27;;;5.05;84.90
62895;BME280;49204;44.916;37.998;2022-11-12T02:13:26;102863.83;;;5.05;84.86
62895;BME280;49204;44.916;37.998;2022-11-12T02:16:34;102871.20;;;5.02;84.85
62895;BME280;49204;44.916;37.998;2022-11-12T02:19:20;102873.70;;;4.98;84.98
62895;BME280;49204;44.916;37.998;2022-11-12T02:22:06;102874.14;;;4.97;85.09
62895;BME280;49204;44.916;37.998;2022-11-12T02:24:51;102874.11;;;4.94;85.18
62895;BME280;49204;44.916;37.998;2022-11-12T02:27:38;102877.09;;;4.92;85.36
62895;BME280;49204;44.916;37.998;2022-11-12T02:30:34;102862.22;;;4.88;85.47
62895;BME280;49204;44.916;37.998;2022-11-12T02:33:17;102868.38;;;4.92;85.45
62895;BME280;49204;44.916;37.998;2022-11-12T02:36:03;102873.58;;;4.90;85.42
62895;BME280;49204;44.916;37.998;2022-11-12T02:38:49;102872.66;;;4.88;85.54
62895;BME280;49204;44.916;37.998;2022-11-12T02:41:35;102869.12;;;4.84;85.64
62895;BME280;49204;44.916;37.998;2022-11-12T02:44:21;102860.42;;;4.84;85.72
62895;BME280;49204;44.916;37.998;2022-11-12T02:47:07;102851.69;;;4.82;85.83
62895;BME280;49204;44.916;37.998;2022-11-12T02:49:53;102859.62;;;4.88;85.75
62895;BME280;49204;44.916;37.998;2022-11-12T02:52:39;102862.27;;;4.90;85.59
62895;BME280;49204;44.916;37.998;2022-11-12T02:55:25;102845.76;;;4.91;85.43
62895;BME280;49204;44.916;37.998;2022-11-12T02:58:11;102844.95;;;4.95;85.34
62895;BME280;49204;44.916;37.998;2022-11-12T03:00:57;102853.73;;;4.98;85.41
62895;BME280;49204;44.916;37.998;2022-11-12T03:03:43;102856.37;;;5.01;85.33
62895;BME280;49204;44.916;37.998;2022-11-12T03:06:29;102857.30;;;5.03;85.25
62895;BME280;49204;44.916;37.998;2022-11-12T03:09:15;102859.91;;;5.03;85.22
62895;BME280;49204;44.916;37.998;2022-11-12T03:12:00;102855.12;;;5.05;85.11
62895;BME280;49204;44.916;37.998;2022-11-12T03:14:46;102853.42;;;5.07;85.06
62895;BME280;49204;44.916;37.998;2022-11-12T03:17:37;102843.75;;;5.01;85.16
62895;BME280;49204;44.916;37.998;2022-11-12T03:20:19;102845.48;;;5.00;85.22
62895;BME280;49204;44.916;37.998;2022-11-12T03:23:06;102845.48;;;5.00;85.31
62895;BME280;49204;44.916;37.998;2022-11-12T03:25:52;102838.09;;;5.01;85.37
62895;BME280;49204;44.916;37.998;2022-11-12T03:28:38;102833.37;;;5.04;85.34
62895;BME280;49204;44.916;37.998;2022-11-12T03:31:24;102834.17;;;5.01;85.36
62895;BME280;49204;44.916;37.998;2022-11-12T03:34:10;102838.50;;;4.99;85.37
62895;BME280;49204;44.916;37.998;2022-11-12T03:36:55;102840.33;;;5.03;85.31
62895;BME280;49204;44.916;37.998;2022-11-12T03:39:41;102849.47;;;5.03;85.14
62895;BME280;49204;44.916;37.998;2022-11-12T03:42:27;102844.28;;;5.07;85.20
62895;BME280;49204;44.916;37.998;2022-11-12T03:45:13;102844.41;;;5.13;85.19
62895;BME280;49204;44.916;37.998;2022-11-12T03:47:59;102840.13;;;5.18;85.12
62895;BME280;49204;44.916;37.998;2022-11-12T03:50:45;102838.91;;;5.22;85.00
62895;BME280;49204;44.916;37.998;2022-11-12T03:53:31;102843.17;;;5.17;85.01
62895;BME280;49204;44.916;37.998;2022-11-12T03:56:17;102841.02;;;5.20;84.92
62895;BME280;49204;44.916;37.998;2022-11-12T03:59:04;102841.08;;;5.23;84.83
62895;BME280;49204;44.916;37.998;2022-11-12T04:01:50;102843.73;;;5.25;84.78
62895;BME280;49204;44.916;37.998;2022-11-12T04:04:36;102851.53;;;5.23;84.66
62895;BME280;49204;44.916;37.998;2022-11-12T04:07:39;102848.86;;;5.20;84.71
62895;BME280;49204;44.916;37.998;2022-11-12T04:10:43;102845.34;;;5.18;84.89
62895;BME280;49204;44.916;37.998;2022-11-12T04:13:29;102839.34;;;5.23;84.94
62895;BME280;49204;44.916;37.998;2022-11-12T04:16:19;102841.58;;;5.27;84.83
62895;BME280;49204;44.916;37.998;2022-11-12T04:19:23;102848.17;;;5.30;84.66
62895;BME280;49204;44.916;37.998;2022-11-12T04:22:27;102854.30;;;5.32;84.48
62895;BME280;49204;44.916;37.998;2022-11-12T04:25:12;102863.47;;;5.34;84.39
62895;BME280;49204;44.916;37.998;2022-11-12T04:28:16;102866.98;;;5.36;84.32
62895;BME280;49204;44.916;37.998;2022-11-12T04:31:02;102879.64;;;5.38;84.21
62895;BME280;49204;44.916;37.998;2022-11-12T04:33:48;102885.30;;;5.37;84.12
62895;BME280;49204;44.916;37.998;2022-11-12T04:36:34;102887.05;;;5.37;84.06
62895;BME280;49204;44.916;37.998;2022-11-12T04:39:19;102890.50;;;5.36;84.01
62895;BME280;49204;44.916;37.998;2022-11-12T04:42:06;102898.77;;;5.35;84.00
62895;BME280;49204;44.916;37.998;2022-11-12T04:45:11;102905.80;;;5.39;84.02
62895;BME280;49204;44.916;37.998;2022-11-12T04:47:57;102905.80;;;5.39;84.01
62895;BME280;49204;44.916;37.998;2022-11-12T04:50:43;102904.03;;;5.38;83.98
62895;BME280;49204;44.916;37.998;2022-11-12T04:53:30;102897.43;;;5.34;83.96
62895;BME280;49204;44.916;37.998;2022-11-12T04:56:16;102905.23;;;5.32;83.97
62895;BME280;49204;44.916;37.998;2022-11-12T04:59:02;102916.02;;;5.27;83.95
62895;BME280;49204;44.916;37.998;2022-11-12T05:01:48;102931.30;;;5.28;83.98
62895;BME280;49204;44.916;37.998;2022-11-12T05:04:34;102936.55;;;5.31;84.02
62895;BME280;49204;44.916;37.998;2022-11-12T05:07:20;102937.89;;;5.32;83.98
62895;BME280;49204;44.916;37.998;2022-11-12T05:10:06;102935.78;;;5.35;83.97
62895;BME280;49204;44.916;37.998;2022-11-12T05:12:52;102932.36;;;5.39;83.94
62895;BME280;49204;44.916;37.998;2022-11-12T05:15:38;102932.43;;;5.44;83.91
62895;BME280;49204;44.916;37.998;2022-11-12T05:18:24;102928.17;;;5.49;83.84
62895;BME280;49204;44.916;37.998;2022-11-12T05:21:09;102937.81;;;5.53;83.75
62895;BME280;49204;44.916;37.998;2022-11-12T05:24:13;102939.55;;;5.52;83.66
62895;BME280;49204;44.916;37.998;2022-11-12T05:26:59;102945.66;;;5.53;83.64
62895;BME280;49204;44.916;37.998;2022-11-12T05:29:45;102936.97;;;5.54;83.62
62895;BME280;49204;44.916;37.998;2022-11-12T05:32:31;102938.78;;;5.58;83.60
62895;BME280;49204;44.916;37.998;2022-11-12T05:35:16;102938.41;;;5.61;83.56
62895;BME280;49204;44.916;37.998;2022-11-12T05:38:02;102938.00;;;5.64;83.51
62895;BME280;49204;44.916;37.998;2022-11-12T05:40:48;102943.72;;;5.68;83.45
62895;BME280;49204;44.916;37.998;2022-11-12T05:43:34;102944.66;;;5.71;83.42
62895;BME280;49204;44.916;37.998;2022-11-12T05:46:20;102954.23;;;5.71;83.36
62895;BME280;49204;44.916;37.998;2022-11-12T05:49:06;102951.69;;;5.75;83.36
62895;BME280;49204;44.916;37.998;2022-11-12T05:51:52;102957.88;;;5.80;83.37
62895;BME280;49204;44.916;37.998;2022-11-12T05:54:38;102953.17;;;5.85;83.41
62895;BME280;49204;44.916;37.998;2022-11-12T05:57:25;102952.33;;;5.87;83.34
62895;BME280;49204;44.916;37.998;2022-11-12T06:00:11;102945.36;;;5.88;83.32
62895;BME280;49204;44.916;37.998;2022-11-12T06:02:57;102930.95;;;5.85;83.52
62895;BME280;49204;44.916;37.998;2022-11-12T06:05:42;102935.34;;;5.87;83.48
62895;BME280;49204;44.916;37.998;2022-11-12T06:08:28;102932.34;;;5.91;83.40
62895;BME280;49204;44.916;37.998;2022-11-12T06:11:14;102930.63;;;5.93;83.55
62895;BME280;49204;44.916;37.998;2022-11-12T06:14:01;102931.47;;;5.92;83.55
62895;BME280;49204;44.916;37.998;2022-11-12T06:16:47;102925.80;;;5.91;83.69
62895;BME280;49204;44.916;37.998;2022-11-12T06:19:33;102921.59;;;5.99;83.68
62895;BME280;49204;44.916;37.998;2022-11-12T06:22:19;102919.03;;;6.02;83.53
62895;BME280;49204;44.916;37.998;2022-11-12T06:25:05;102921.18;;;6.01;83.54
62895;BME280;49204;44.916;37.998;2022-11-12T06:27:51;102922.98;;;6.04;83.61
62895;BME280;49204;44.916;37.998;2022-11-12T06:30:36;102915.63;;;6.08;83.48
62895;BME280;49204;44.916;37.998;2022-11-12T06:33:22;102919.62;;;6.12;83.50
62895;BME280;49204;44.916;37.998;2022-11-12T06:36:08;102915.75;;;6.17;83.50
62895;BME280;49204;44.916;37.998;2022-11-12T06:38:54;102906.22;;;6.21;83.41
62895;BME280;49204;44.916;37.998;2022-11-12T06:41:40;102901.37;;;6.17;83.52
62895;BME280;49204;44.916;37.998;2022-11-12T06:44:26;102900.95;;;6.19;83.68
62895;BME280;49204;44.916;37.998;2022-11-12T06:47:12;102906.75;;;6.28;83.54
62895;BME280;49204;44.916;37.998;2022-11-12T06:49:58;102894.17;;;6.33;83.45
62895;BME280;49204;44.916;37.998;2022-11-12T06:52:44;102893.84;;;6.40;83.42
62895;BME280;49204;44.916;37.998;2022-11-12T06:55:30;102885.19;;;6.46;83.31
62895;BME280;49204;44.916;37.998;2022-11-12T06:58:16;102881.78;;;6.54;83.22
62895;BME280;49204;44.916;37.998;2022-11-12T07:01:09;102883.09;;;6.54;83.09
62895;BME280;49204;44.916;37.998;2022-11-12T07:03:56;102876.95;;;6.49;83.09
62895;BME280;49204;44.916;37.998;2022-11-12T07:06:41;102877.37;;;6.50;83.05
62895;BME280;49204;44.916;37.998;2022-11-12T07:09:27;102884.86;;;6.55;82.94
62895;BME280;49204;44.916;37.998;2022-11-12T07:12:13;102881.41;;;6.60;82.92
62895;BME280;49204;44.916;37.998;2022-11-12T07:14:58;102890.64;;;6.64;82.87
62895;BME280;49204;44.916;37.998;2022-11-12T07:17:45;102899.87;;;6.70;82.90
62895;BME280;49204;44.916;37.998;2022-11-12T07:20:31;102899.11;;;6.79;82.92
62895;BME280;49204;44.916;37.998;2022-11-12T07:23:17;102912.67;;;6.83;82.77
62895;BME280;49204;44.916;37.998;2022-11-12T07:26:05;102915.77;;;6.87;82.62
62895;BME280;49204;44.916;37.998;2022-11-12T07:28:52;102921.48;;;6.91;82.54
62895;BME280;49204;44.916;37.998;2022-11-12T07:31:39;102926.78;;;6.96;82.47
62895;BME280;49204;44.916;37.998;2022-11-12T07:34:24;102930.75;;;7.01;82.43
62895;BME280;49204;44.916;37.998;2022-11-12T07:37:11;102927.33;;;7.08;82.37
62895;BME280;49204;44.916;37.998;2022-11-12T07:39:56;102931.75;;;7.10;82.30
62895;BME280;49204;44.916;37.998;2022-11-12T07:42:43;102936.52;;;7.09;82.25
62895;BME280;49204;44.916;37.998;2022-11-12T07:45:29;102936.09;;;7.10;82.20
62895;BME280;49204;44.916;37.998;2022-11-12T07:48:15;102938.27;;;7.09;82.09
62895;BME280;49204;44.916;37.998;2022-11-12T07:51:02;102938.31;;;7.12;82.09
62895;BME280;49204;44.916;37.998;2022-11-12T07:53:48;102944.44;;;7.15;82.05
62895;BME280;49204;44.916;37.998;2022-11-12T07:56:34;102951.89;;;7.16;81.97
62895;BME280;49204;44.916;37.998;2022-11-12T07:59:20;102958.45;;;7.19;82.00
62895;BME280;49204;44.916;37.998;2022-11-12T08:02:06;102959.77;;;7.19;81.98
62895;BME280;49204;44.916;37.998;2022-11-12T08:04:53;102966.77;;;7.20;81.99
62895;BME280;49204;44.916;37.998;2022-11-12T08:07:39;102966.81;;;7.23;82.02
62895;BME280;49204;44.916;37.998;2022-11-12T08:10:25;102965.09;;;7.25;82.01
62895;BME280;49204;44.916;37.998;2022-11-12T08:13:11;102967.25;;;7.24;82.14
62895;BME280;49204;44.916;37.998;2022-11-12T08:15:57;102969.93;;;7.29;82.12
62895;BME280;49204;44.916;37.998;2022-11-12T08:18:44;102966.87;;;7.29;82.18
62895;BME280;49204;44.916;37.998;2022-11-12T08:21:30;102966.41;;;7.28;82.39
62895;BME280;49204;44.916;37.998;2022-11-12T08:24:16;102968.72;;;7.38;82.42
62895;BME280;49204;44.916;37.998;2022-11-12T08:27:02;102976.59;;;7.41;82.28
62895;BME280;49204;44.916;37.998;2022-11-12T08:29:48;102976.64;;;7.46;82.24
62895;BME280;49204;44.916;37.998;2022-11-12T08:32:34;102974.91;;;7.48;82.11
62895;BME280;49204;44.916;37.998;2022-11-12T08:35:19;102970.13;;;7.49;82.04
62895;BME280;49204;44.916;37.998;2022-11-12T08:38:05;102970.56;;;7.50;81.94
62895;BME280;49204;44.916;37.998;2022-11-12T08:40:58;102972.36;;;7.52;81.89
62895;BME280;49204;44.916;37.998;2022-11-12T08:43:42;102975.37;;;7.49;81.71
62895;BME280;49204;44.916;37.998;2022-11-12T08:46:27;102972.75;;;7.49;81.63
62895;BME280;49204;44.916;37.998;2022-11-12T08:49:13;102968.36;;;7.48;81.60
62895;BME280;49204;44.916;37.998;2022-11-12T08:51:59;102965.69;;;7.42;81.54
62895;BME280;49204;44.916;37.998;2022-11-12T08:54:45;102968.23;;;7.35;81.54
62895;BME280;49204;44.916;37.998;2022-11-12T08:57:30;102973.05;;;7.38;81.57
62895;BME280;49204;44.916;37.998;2022-11-12T09:00:17;102972.25;;;7.42;81.61
62895;BME280;49204;44.916;37.998;2022-11-12T09:03:03;102974.05;;;7.47;81.61
62895;BME280;49204;44.916;37.998;2022-11-12T09:05:50;102971.41;;;7.46;81.55
62895;BME280;49204;44.916;37.998;2022-11-12T09:08:36;102966.16;;;7.46;81.53
62895;BME280;49204;44.916;37.998;2022-11-12T09:11:23;102970.55;;;7.48;81.57
62895;BME280;49204;44.916;37.998;2022-11-12T09:14:08;102969.31;;;7.54;81.59
62895;BME280;49204;44.916;37.998;2022-11-12T09:16:55;102954.88;;;7.56;81.56
62895;BME280;49204;44.916;37.998;2022-11-12T09:19:41;102960.14;;;7.58;81.50
62895;BME280;49204;44.916;37.998;2022-11-12T09:22:27;102961.05;;;7.58;81.45
62895;BME280;49204;44.916;37.998;2022-11-12T09:25:13;102966.29;;;7.58;81.40
62895;BME280;49204;44.916;37.998;2022-11-12T09:30:53;102960.18;;;7.61;81.33
62895;BME280;49204;44.916;37.998;2022-11-12T09:33:39;102961.94;;;7.63;81.30
62895;BME280;49204;44.916;37.998;2022-11-12T09:36:25;102964.13;;;7.62;81.32
62895;BME280;49204;44.916;37.998;2022-11-12T09:39:11;102964.14;;;7.65;81.32
62895;BME280;49204;44.916;37.998;2022-11-12T09:41:57;102960.24;;;7.68;81.28
62895;BME280;49204;44.916;37.998;2022-11-12T09:44:43;102954.58;;;7.70;81.34
62895;BME280;49204;44.916;37.998;2022-11-12T09:47:37;102961.14;;;7.72;81.32
62895;BME280;49204;44.916;37.998;2022-11-12T09:50:27;102960.68;;;7.68;81.21
62895;BME280;49204;44.916;37.998;2022-11-12T09:54:00;102961.52;;;7.65;81.17
62895;BME280;49204;44.916;37.998;2022-11-12T09:56:00;102966.76;;;7.65;81.21
62895;BME280;49204;44.916;37.998;2022-11-12T09:58:48;102961.94;;;7.63;81.24
62895;BME280;49204;44.916;37.998;2022-11-12T10:01:56;102967.22;;;7.66;81.27
62895;BME280;49204;44.916;37.998;2022-11-12T10:07:31;102963.77;;;7.72;81.20
62895;BME280;49204;44.916;37.998;2022-11-12T10:10:31;102966.84;;;7.74;81.17
62895;BME280;49204;44.916;37.998;2022-11-12T10:16:02;102969.92;;;7.76;80.99
62895;BME280;49204;44.916;37.998;2022-11-12T10:24:53;102957.33;;;7.84;81.07
62895;BME280;49204;44.916;37.998;2022-11-12T10:27:40;102955.14;;;7.87;80.99
62895;BME280;49204;44.916;37.998;2022-11-12T10:30:26;102946.42;;;7.91;80.93
62895;BME280;49204;44.916;37.998;2022-11-12T10:33:12;102940.33;;;7.92;80.93
62895;BME280;49204;44.916;37.998;2022-11-12T10:36:33;102935.50;;;7.90;80.68
62895;BME280;49204;44.916;37.998;2022-11-12T10:38:52;102935.05;;;7.86;80.63
62895;BME280;49204;44.916;37.998;2022-11-12T10:41:38;102921.93;;;7.86;80.73
62895;BME280;49204;44.916;37.998;2022-11-12T10:44:24;102919.30;;;7.89;80.67
62895;BME280;49204;44.916;37.998;2022-11-12T10:47:30;102914.06;;;7.86;80.54
62895;BME280;49204;44.916;37.998;2022-11-12T10:53:10;102903.98;;;7.85;80.42
62895;BME280;49204;44.916;37.998;2022-11-12T10:55:57;102899.16;;;7.80;80.30
62895;BME280;49204;44.916;37.998;2022-11-12T10:58:44;102892.95;;;7.70;80.38
62895;BME280;49204;44.916;37.998;2022-11-12T11:01:30;102893.38;;;7.68;80.46
62895;BME280;49204;44.916;37.998;2022-11-12T11:07:23;102888.95;;;7.58;80.40
62895;BME280;49204;44.916;37.998;2022-11-12T11:10:21;102884.09;;;7.56;80.44
62895;BME280;49204;44.916;37.998;2022-11-12T11:15:57;102877.64;;;7.68;80.42
62895;BME280;49204;44.916;37.998;2022-11-12T11:18:48;102885.54;;;7.74;80.33
62895;BME280;49204;44.916;37.998;2022-11-12T11:21:46;102889.50;;;7.78;80.30
62895;BME280;49204;44.916;37.998;2022-11-12T11:30:17;102882.16;;;7.91;80.34
62895;BME280;49204;44.916;37.998;2022-11-12T11:33:17;102878.22;;;7.88;80.18
62895;BME280;49204;44.916;37.998;2022-11-12T11:36:09;102887.83;;;7.86;80.10
62895;BME280;49204;44.916;37.998;2022-11-12T11:39:02;102881.67;;;7.81;80.10
62895;BME280;49204;44.916;37.998;2022-11-12T11:44:42;102880.72;;;7.69;79.96
62895;BME280;49204;44.916;37.998;2022-11-12T11:48:01;102883.75;;;7.66;79.95
62895;BME280;49204;44.916;37.998;2022-11-12T11:50:21;102872.80;;;7.62;79.94
62895;BME280;49204;44.916;37.998;2022-11-12T11:53:19;102880.67;;;7.62;79.99
62895;BME280;49204;44.916;37.998;2022-11-12T11:56:03;102881.50;;;7.59;80.08
62895;BME280;49204;44.916;37.998;2022-11-12T11:58:57;102882.80;;;7.58;80.17
62895;BME280;49204;44.916;37.998;2022-11-12T12:07:45;102875.41;;;7.63;80.13
62895;BME280;49204;44.916;37.998;2022-11-12T12:21:48;102881.11;;;7.64;79.97
62895;BME280;49204;44.916;37.998;2022-11-12T12:24:42;102887.66;;;7.63;79.92
62895;BME280;49204;44.916;37.998;2022-11-12T12:27:33;102895.50;;;7.61;79.92
62895;BME280;49204;44.916;37.998;2022-11-12T12:30:30;102891.14;;;7.60;79.92
62895;BME280;49204;44.916;37.998;2022-11-12T12:32:58;102893.30;;;7.59;79.92
62895;BME280;49204;44.916;37.998;2022-11-12T12:35:49;102895.05;;;7.59;79.96
62895;BME280;49204;44.916;37.998;2022-11-12T12:44:32;102892.88;;;7.58;80.10
62895;BME280;49204;44.916;37.998;2022-11-12T12:47:17;102888.95;;;7.58;80.05
62895;BME280;49204;44.916;37.998;2022-11-12T12:50:06;102884.13;;;7.59;80.04
62895;BME280;49204;44.916;37.998;2022-11-12T12:55:46;102879.30;;;7.57;79.94
62895;BME280;49204;44.916;37.998;2022-11-12T12:58:40;102879.30;;;7.57;80.01
62895;BME280;49204;44.916;37.998;2022-11-12T13:04:07;102872.77;;;7.59;80.01
62895;BME280;49204;44.916;37.998;2022-11-12T13:06:54;102871.90;;;7.58;79.99
62895;BME280;49204;44.916;37.998;2022-11-12T13:09:39;102871.88;;;7.57;79.96
62895;BME280;49204;44.916;37.998;2022-11-12T13:15:40;102871.41;;;7.51;80.00
62895;BME280;49204;44.916;37.998;2022-11-12T13:21:23;102874.45;;;7.49;80.02
62895;BME280;49204;44.916;37.998;2022-11-12T13:24:09;102873.14;;;7.49;80.00
62895;BME280;49204;44.916;37.998;2022-11-12T13:26:59;102870.06;;;7.48;80.00
62895;BME280;49204;44.916;37.998;2022-11-12T13:29:46;102875.30;;;7.48;80.03
62895;BME280;49204;44.916;37.998;2022-11-12T13:32:32;102881.01;;;7.49;80.01
62895;BME280;49204;44.916;37.998;2022-11-12T13:35:20;102873.99;;;7.48;80.06
62895;BME280;49204;44.916;37.998;2022-11-12T13:41:03;102866.52;;;7.43;80.14
62895;BME280;49204;44.916;37.998;2022-11-12T13:43:44;102868.29;;;7.44;80.17
62895;BME280;49204;44.916;37.998;2022-11-12T13:46:31;102869.13;;;7.40;80.28
62895;BME280;49204;44.916;37.998;2022-11-12T13:49:18;102874.78;;;7.39;80.25
62895;BME280;49204;44.916;37.998;2022-11-12T13:52:04;102876.55;;;7.40;80.20
62895;BME280;49204;44.916;37.998;2022-11-12T13:55:03;102883.53;;;7.41;80.16
62895;BME280;49204;44.916;37.998;2022-11-12T13:57:51;102878.73;;;7.41;80.15
62895;BME280;49204;44.916;37.998;2022-11-12T14:00:38;102879.61;;;7.41;80.12
62895;BME280;49204;44.916;37.998;2022-11-12T14:03:26;102878.30;;;7.41;80.12
62895;BME280;49204;44.916;37.998;2022-11-12T14:06:23;102881.36;;;7.41;80.09
62895;BME280;49204;44.916;37.998;2022-11-12T14:09:11;102877.89;;;7.42;80.10
62895;BME280;49204;44.916;37.998;2022-11-12T14:12:12;102886.59;;;7.41;80.09
62895;BME280;49204;44.916;37.998;2022-11-12T14:21:12;102893.61;;;7.42;80.07
62895;BME280;49204;44.916;37.998;2022-11-12T14:23:57;102893.61;;;7.42;80.07
62895;BME280;49204;44.916;37.998;2022-11-12T14:26:42;102900.59;;;7.43;80.06
62895;BME280;49204;44.916;37.998;2022-11-12T14:29:29;102903.67;;;7.44;80.08
62895;BME280;49204;44.916;37.998;2022-11-12T14:32:14;102899.74;;;7.44;80.07
62895;BME280;49204;44.916;37.998;2022-11-12T14:35:15;102899.30;;;7.44;80.07
62895;BME280;49204;44.916;37.998;2022-11-12T14:37:54;102891.89;;;7.45;80.06
62895;BME280;49204;44.916;37.998;2022-11-12T14:40:47;102904.98;;;7.47;80.04
62895;BME280;49204;44.916;37.998;2022-11-12T14:43:30;102892.77;;;7.46;80.01
62895;BME280;49204;44.916;37.998;2022-11-12T14:49:17;102895.81;;;7.47;80.04
62895;BME280;49204;44.916;37.998;2022-11-12T14:52:05;102898.89;;;7.48;80.04
62895;BME280;49204;44.916;37.998;2022-11-12T14:54:51;102898.88;;;7.46;80.02
62895;BME280;49204;44.916;37.998;2022-11-12T14:57:39;102902.36;;;7.44;80.09
62895;BME280;49204;44.916;37.998;2022-11-12T15:03:23;102904.11;;;7.43;80.09
62895;BME280;49204;44.916;37.998;2022-11-12T15:06:09;102904.11;;;7.43;80.05
62895;BME280;49204;44.916;37.998;2022-11-12T15:08:56;102902.79;;;7.45;80.08
62895;BME280;49204;44.916;37.998;2022-11-12T15:11:43;102898.86;;;7.45;80.06
62895;BME280;49204;44.916;37.998;2022-11-12T15:14:30;102897.55;;;7.42;80.12
62895;BME280;49204;44.916;37.998;2022-11-12T15:17:21;102894.02;;;7.38;80.24
62895;BME280;49204;44.916;37.998;2022-11-12T15:20:11;102895.73;;;7.34;80.35
62895;BME280;49204;44.916;37.998;2022-11-12T15:22:50;102883.90;;;7.31;80.33
62895;BME280;49204;44.916;37.998;2022-11-12T15:25:37;102883.03;;;7.31;80.39
62895;BME280;49204;44.916;37.998;2022-11-12T15:28:23;102890.02;;;7.30;80.42
62895;BME280;49204;44.916;37.998;2022-11-12T15:31:18;102886.52;;;7.31;80.38
62895;BME280;49204;44.916;37.998;2022-11-12T15:37:10;102877.34;;;7.31;80.33
62895;BME280;49204;44.916;37.998;2022-11-12T15:39:58;102879.50;;;7.27;80.50
62895;BME280;49204;44.916;37.998;2022-11-12T15:42:45;102882.08;;;7.24;80.63
62895;BME280;49204;44.916;37.998;2022-11-12T15:45:32;102878.61;;;7.25;80.68
62895;BME280;49204;44.916;37.998;2022-11-12T15:48:18;102882.12;;;7.27;80.71
62895;BME280;49204;44.916;37.998;2022-11-12T15:51:04;102877.30;;;7.25;80.75
62895;BME280;49204;44.916;37.998;2022-11-12T15:53:50;102870.72;;;7.22;80.82
62895;BME280;49204;44.916;37.998;2022-11-12T15:56:36;102874.66;;;7.24;80.80
62895;BME280;49204;44.916;37.998;2022-11-12T15:59:22;102875.99;;;7.25;80.77